EBCV

Chièvres Air Base Airport

Chièvres, Belgium
METAR EBCV 180055Z AUTO 02003KT 6000 BKN033/// 12/11 Q1023 WHT
Observed Flight Rules
Oct-18 @ 00:55 UTC (43 minutes ago) Marginal Visual Flight Rules
Wind Visibility Clouds
20° at 3 knots 6,003 meters
  • Broken at 3,300' AGL
Temperatures Readings
Current 12°C / 54°F
Dewpoint 11°C / 52°F
Humidity 94%
Altimeter 30.21" Hg
Pressure 1023 hPa
Elevation 63
METAR EBCV 180055Z AUTO 02003KT 6000 BKN033/// 12/11 Q1023 WHT
Observed Flight Rules
Oct-18 @ 00:55 UTC
(43 minutes ago)
MVFR
Wind Visibility
20° at 3 knots 6,003 meters
Clouds
  • Broken at 3,300' AGL
Temperature Dewpoint
12°C / 54°F 11°C / 52°F
Humidity Altimeter Pressure
94% 30.21" Hg 1023 hPa